Route Details

Aircraft Information
Group: North America Fleet
Types: B738, B752, B762, B763
Route Data
Distance: 171nm
Duration: 1h 10m
Origin METAR: KLAS 010456Z 00000KT 10SM CLR 04/M12 A3025 RMK AO2 SLP251 T00391117
Dest. METAR: KONT 010453Z 03013G19KT 10SM CLR 13/M11 A3008 RMK AO2 PK WND 04031/0409 SLP186 T01331111
Freight Data
(for Feb 1, 2023)
Load Factor:
41%
Manifested Cargo: 42,977lbs
Financial History
Total Freight: 454,548lbs
Average Load: 0lbs/flt
Fuel Used: 44,380lbs
Avg. Fuel Used: 0lbs/flt
Fuel Expense: $26,253
Avg. Fuel Expense: $0
Avg. Fuel Cost: $0/lbs
Total Gross Income: $1,118,188
Pilot Pay: $2,041
Total Expenses: $228,232
Total Revenue: $862,018
Average Revenue: $0

Capitol Logistics 399




KLAS
Harry Reid International Airport
Las Vegas, Nevada
KONT
Ontario International Airport
Ontario, California

Activity Log

Date Flight Route Aircraft Duration
12/31/2022 CPX399 RADYR2 SLVRR FEYLA JCKIE2 B762 0h 46m
11/28/2022 CPX399 RADYR2 SLVRR DCT FEYLA JCKIE2 B762 0h 46m
11/26/2022 CPX399 RADYR2 SLVRR DCT FEYLA JCKIE2 B752 0h 56m
07/20/2022 CPX399 RADYR2 SLVRR DCT FEYLA JCKIE2 B738 0h 44m
07/18/2022 CPX399 RADYR2 SLVRR DCT FEYLA JCKIE2 B738 0h 54m
07/15/2022 CPX399 RADYR1 SLVRR FEYLA JCKIE2 B763 0h 38m
07/14/2022 CPX399 RADYR1 SLVRR FEYLA JCKIE2 B763 0h 38m
07/13/2022 CPX399 RADYR1 SLVRR FEYLA JCKIE2 B738 0h 46m
07/10/2022 CPX399 RADYR2 SLVRR DCT FEYLA JCKIE2 B763 0h 52m